createdAt,value
2023-05-21T00:03:27.424Z,3.20
2023-05-21T00:07:03.930Z,3.40
2023-05-21T00:10:40.006Z,3.50
2023-05-21T00:14:18.142Z,3.50
2023-05-21T00:17:55.917Z,4.20
2023-05-21T00:21:34.084Z,3.20
2023-05-21T00:25:12.643Z,3.40
2023-05-21T00:28:48.580Z,4.20
2023-05-21T00:32:26.401Z,5.10
2023-05-21T00:36:04.168Z,3.80
2023-05-21T00:39:41.692Z,3.70
2023-05-21T00:43:20.650Z,3.80
2023-05-21T00:46:56.943Z,4.10
2023-05-21T00:50:36.228Z,4.10
2023-05-21T00:54:12.674Z,3.90
2023-05-21T00:57:50.157Z,4.10
2023-05-21T01:01:27.861Z,4.60
2023-05-21T01:05:16.506Z,4.20
2023-05-21T01:12:21.677Z,4.30
2023-05-21T01:15:59.241Z,4.40
2023-05-21T01:19:36.804Z,4.80
2023-05-21T01:23:17.410Z,4.10
2023-05-21T01:26:52.677Z,4.60
2023-05-21T01:30:29.419Z,5.40
2023-05-21T01:34:11.215Z,4.80
2023-05-21T01:37:57.803Z,4.30
2023-05-21T01:41:23.335Z,4.70
2023-05-21T01:45:02.720Z,4.50
2023-05-21T01:48:38.979Z,5.30
2023-05-21T01:52:17.530Z,5.10
2023-05-21T01:55:52.635Z,4.70
2023-05-21T01:59:30.540Z,4.80
2023-05-21T02:03:09.298Z,4.70
2023-05-21T02:06:45.826Z,5.00
2023-05-21T02:10:23.368Z,5.20
2023-05-21T02:14:00.877Z,6.50
2023-05-21T02:17:39.040Z,5.70
2023-05-21T02:21:17.785Z,5.10
2023-05-21T02:24:54.894Z,6.40
2023-05-21T02:28:33.699Z,5.30
2023-05-21T02:35:47.008Z,6.20
2023-05-21T02:39:24.662Z,5.50
2023-05-21T02:43:02.351Z,5.20
2023-05-21T02:46:40.846Z,5.10
2023-05-21T02:50:17.823Z,5.50
2023-05-21T02:53:56.094Z,5.10
2023-05-21T02:57:33.285Z,5.80
2023-05-21T03:01:10.644Z,6.60
2023-05-21T03:04:52.302Z,6.40
2023-05-21T03:08:27.737Z,5.80
2023-05-21T03:12:03.688Z,5.10
2023-05-21T03:15:44.145Z,4.60
2023-05-21T03:19:42.479Z,5.70
2023-05-21T03:23:28.245Z,5.50
2023-05-21T03:27:15.465Z,5.00
2023-05-21T03:31:15.847Z,6.20
2023-05-21T03:34:47.175Z,5.10
2023-05-21T03:42:00.617Z,6.40
2023-05-21T03:46:04.530Z,4.70
2023-05-21T03:49:27.037Z,5.70
2023-05-21T03:53:02.991Z,5.50
2023-05-21T03:56:44.117Z,5.50
2023-05-21T04:00:21.082Z,5.80
2023-05-21T04:04:00.507Z,5.00
2023-05-21T04:07:34.131Z,5.40
2023-05-21T04:11:13.510Z,4.70
2023-05-21T04:14:52.830Z,5.20
2023-05-21T04:18:29.715Z,6.30
2023-05-21T04:22:08.850Z,6.50
2023-05-21T04:25:49.797Z,5.60
2023-05-21T04:29:43.082Z,5.70
2023-05-21T04:36:48.135Z,5.00
2023-05-21T04:40:28.563Z,5.90
2023-05-21T04:43:50.891Z,5.10
2023-05-21T04:47:32.136Z,9.20
2023-05-21T04:51:18.638Z,7.30
2023-05-21T04:54:55.355Z,6.10
2023-05-21T04:58:23.196Z,6.00
2023-05-21T05:02:02.544Z,6.90
2023-05-21T05:05:38.470Z,5.20
2023-05-21T05:09:16.353Z,5.00
2023-05-21T05:12:53.412Z,6.50
2023-05-21T05:16:31.454Z,8.30
2023-05-21T05:20:10.314Z,6.40
2023-05-21T05:23:46.063Z,4.50
2023-05-21T05:27:25.961Z,6.10
2023-05-21T05:31:01.891Z,8.90
2023-05-21T05:34:39.351Z,4.80
2023-05-21T05:38:17.468Z,5.20
2023-05-21T05:41:54.781Z,5.10
2023-05-21T05:45:32.233Z,4.80
2023-05-21T05:49:09.950Z,5.00
2023-05-21T05:52:49.796Z,5.40
2023-05-21T05:56:27.079Z,4.60
2023-05-21T06:00:04.805Z,4.40
2023-05-21T06:03:40.860Z,5.80
2023-05-21T06:07:18.600Z,4.30
2023-05-21T06:10:56.082Z,5.20
2023-05-21T06:14:34.207Z,10.00
2023-05-21T06:18:11.891Z,7.00
2023-05-21T06:21:49.096Z,4.60
2023-05-21T06:25:27.159Z,4.30
2023-05-21T06:29:04.299Z,4.70
2023-05-21T06:32:43.941Z,3.80
2023-05-21T06:36:19.913Z,3.80
2023-05-21T06:39:57.414Z,3.70
2023-05-21T06:43:35.374Z,3.70
2023-05-21T06:47:12.980Z,3.80
2023-05-21T06:50:50.670Z,3.90
2023-05-21T06:54:28.167Z,3.90
2023-05-21T06:58:05.765Z,3.40
2023-05-21T07:02:19.287Z,3.00
2023-05-21T07:05:45.304Z,6.60
2023-05-21T07:09:21.034Z,4.50
2023-05-21T07:12:58.338Z,3.10
2023-05-21T07:16:36.014Z,3.40
2023-05-21T07:20:14.216Z,4.00
2023-05-21T07:23:51.496Z,3.80
2023-05-21T07:27:28.902Z,3.60
2023-05-21T07:31:07.091Z,3.60
2023-05-21T07:34:44.403Z,3.10
2023-05-21T07:38:21.954Z,3.40
2023-05-21T07:41:59.688Z,3.20
2023-05-21T07:45:37.983Z,3.30
2023-05-21T07:49:17.227Z,3.30
2023-05-21T07:52:52.683Z,2.90
2023-05-21T07:56:32.423Z,3.60
2023-05-21T08:00:14.221Z,3.50
2023-05-21T08:03:46.171Z,3.60
2023-05-21T08:07:23.558Z,3.60
2023-05-21T08:11:01.974Z,4.10
2023-05-21T08:14:38.601Z,4.00
2023-05-21T08:18:17.965Z,3.20
2023-05-21T08:21:54.106Z,6.30
2023-05-21T08:25:32.150Z,3.30
2023-05-21T08:29:09.365Z,3.30
2023-05-21T08:32:49.034Z,3.50
2023-05-21T08:36:25.219Z,3.50
2023-05-21T08:40:04.262Z,3.40
2023-05-21T08:43:40.855Z,3.70
2023-05-21T08:47:23.988Z,3.40
2023-05-21T08:50:55.727Z,3.60
2023-05-21T08:54:33.838Z,4.00
2023-05-21T08:58:12.661Z,3.30
2023-05-21T09:01:50.283Z,3.10
2023-05-21T09:05:28.278Z,3.30
2023-05-21T09:09:11.937Z,3.20
2023-05-21T09:12:42.219Z,3.60
2023-05-21T09:16:19.589Z,3.70
2023-05-21T09:20:12.614Z,4.00
2023-05-21T09:23:34.724Z,3.50
2023-05-21T09:27:12.329Z,3.80
2023-05-21T09:30:54.470Z,3.20
2023-05-21T09:34:28.413Z,3.60
2023-05-21T09:38:09.620Z,3.60
2023-05-21T09:41:43.140Z,3.80
2023-05-21T09:45:22.645Z,4.00
2023-05-21T09:48:58.396Z,3.20
2023-05-21T09:52:38.307Z,3.30
2023-05-21T09:56:13.959Z,3.40
2023-05-21T09:59:52.060Z,3.80
2023-05-21T10:03:32.224Z,3.20
2023-05-21T10:07:07.966Z,4.20
2023-05-21T10:10:47.243Z,4.70
2023-05-21T10:14:25.636Z,3.70
2023-05-21T10:18:01.853Z,4.40
2023-05-21T10:21:39.944Z,3.60
2023-05-21T10:25:16.813Z,4.00
2023-05-21T10:28:56.291Z,4.00
2023-05-21T10:32:32.254Z,3.90
2023-05-21T10:36:10.274Z,4.10
2023-05-21T10:39:47.141Z,3.80
2023-05-21T10:43:46.312Z,4.10
2023-05-21T10:47:34.847Z,4.20
2023-05-21T10:50:58.499Z,3.60
2023-05-21T10:54:43.197Z,3.60
2023-05-21T10:58:30.123Z,4.20
2023-05-21T11:02:13.004Z,3.50
2023-05-21T11:05:43.802Z,3.70
2023-05-21T11:09:23.062Z,4.00
2023-05-21T11:13:22.582Z,3.70
2023-05-21T11:16:48.750Z,3.70
2023-05-21T11:20:34.990Z,3.00
2023-05-21T11:24:17.495Z,3.60
2023-05-21T11:27:48.441Z,3.40
2023-05-21T11:31:32.775Z,4.30
2023-05-21T11:35:04.287Z,4.10
2023-05-21T11:38:39.294Z,3.90
2023-05-21T11:42:14.393Z,4.20
2023-05-21T11:45:54.242Z,3.40
2023-05-21T11:49:28.899Z,4.10
2023-05-21T11:53:15.821Z,3.20
2023-05-21T11:56:44.406Z,3.80
2023-05-21T12:00:19.816Z,2.80
2023-05-21T12:04:25.260Z,3.80
2023-05-21T12:07:51.188Z,3.30
2023-05-21T12:11:13.492Z,3.50
2023-05-21T12:18:32.254Z,3.40
2023-05-21T12:22:10.656Z,3.20
2023-05-21T12:25:46.144Z,2.40
2023-05-21T12:29:28.221Z,3.30
2023-05-21T12:32:58.723Z,3.70
2023-05-21T12:36:34.958Z,2.90
2023-05-21T12:40:13.036Z,3.00
2023-05-21T12:43:51.713Z,2.80
2023-05-21T12:47:28.867Z,3.10
2023-05-21T12:51:05.875Z,3.00
2023-05-21T12:55:02.287Z,2.40
2023-05-21T12:58:28.272Z,3.70
2023-05-21T13:01:58.542Z,2.50
2023-05-21T13:05:41.647Z,2.50
2023-05-21T13:09:14.313Z,2.30
2023-05-21T13:12:51.362Z,3.30
2023-05-21T13:16:31.879Z,2.40
2023-05-21T13:20:17.097Z,2.00
2023-05-21T13:23:44.860Z,2.30
2023-05-21T13:27:22.111Z,2.40
2023-05-21T13:31:00.002Z,2.30
2023-05-21T13:34:37.634Z,2.10
2023-05-21T13:38:15.234Z,2.00
2023-05-21T13:41:53.139Z,2.30
2023-05-21T13:45:31.148Z,2.40
2023-05-21T13:49:08.430Z,2.10
2023-05-21T13:52:46.383Z,2.30
2023-05-21T13:56:23.671Z,2.30
2023-05-21T14:00:01.623Z,2.30
2023-05-21T14:03:39.373Z,2.10
2023-05-21T14:07:16.989Z,2.40
2023-05-21T14:10:54.634Z,2.00
2023-05-21T14:14:33.527Z,2.10
2023-05-21T14:18:12.467Z,1.90
2023-05-21T14:21:47.534Z,2.20
2023-05-21T14:25:24.997Z,1.90
2023-05-21T14:29:03.006Z,2.10
2023-05-21T14:32:42.433Z,2.00
2023-05-21T14:36:18.078Z,2.10
2023-05-21T14:39:55.961Z,2.00
2023-05-21T14:43:33.978Z,1.90
2023-05-21T14:47:11.340Z,1.90
2023-05-21T14:51:10.804Z,2.10
2023-05-21T14:54:26.621Z,2.30
2023-05-21T14:58:05.263Z,2.30
2023-05-21T15:01:41.970Z,2.30
2023-05-21T15:05:19.807Z,2.00
2023-05-21T15:08:57.514Z,1.80
2023-05-21T15:12:34.768Z,2.50
2023-05-21T15:16:12.881Z,2.70
2023-05-21T15:19:50.192Z,1.70
2023-05-21T15:23:28.445Z,2.00
2023-05-21T15:27:05.698Z,2.40
2023-05-21T15:30:43.221Z,2.00
2023-05-21T15:34:23.254Z,1.80
2023-05-21T15:37:58.728Z,2.20
2023-05-21T15:41:39.134Z,2.50
2023-05-21T15:45:14.124Z,4.20
2023-05-21T15:48:51.624Z,2.20
2023-05-21T15:52:30.108Z,1.80
2023-05-21T15:56:07.674Z,2.40
2023-05-21T15:59:45.091Z,2.40
2023-05-21T16:03:22.198Z,2.30
2023-05-21T16:07:00.487Z,2.50
2023-05-21T16:10:39.512Z,2.20
2023-05-21T16:14:34.653Z,2.20
2023-05-21T16:17:53.328Z,2.00
2023-05-21T16:21:31.899Z,2.50
2023-05-21T16:25:08.861Z,2.20
2023-05-21T16:28:46.401Z,2.20
2023-05-21T16:32:24.503Z,2.10
2023-05-21T16:36:22.864Z,2.40
2023-05-21T16:40:02.198Z,2.60
2023-05-21T16:47:02.701Z,2.40
2023-05-21T16:51:08.451Z,1.50
2023-05-21T16:55:10.925Z,2.00
2023-05-21T16:58:47.846Z,1.90
2023-05-21T17:03:01.560Z,2.50
2023-05-21T17:06:08.672Z,2.10
2023-05-21T17:10:19.291Z,2.50
2023-05-21T17:13:56.115Z,1.80
2023-05-21T17:17:24.339Z,1.50
2023-05-21T17:21:02.345Z,3.20
2023-05-21T17:24:39.443Z,1.80
2023-05-21T17:28:17.161Z,1.80
2023-05-21T17:31:54.724Z,1.60
2023-05-21T17:35:32.670Z,2.00
2023-05-21T17:39:09.838Z,2.00
2023-05-21T17:42:48.024Z,2.30
2023-05-21T17:46:25.439Z,1.50
2023-05-21T17:50:03.540Z,1.90
2023-05-21T17:53:41.472Z,1.80
2023-05-21T17:57:20.585Z,1.60
2023-05-21T18:12:57.569Z,1.90
2023-05-21T18:16:34.596Z,2.00
2023-05-21T18:28:35.997Z,2.10
2023-05-21T18:40:14.209Z,1.90
2023-05-21T18:43:51.459Z,2.10
2023-05-21T18:47:28.804Z,2.00
2023-05-21T18:51:06.753Z,2.00
2023-05-21T18:58:33.578Z,2.00
2023-05-21T19:02:08.057Z,2.10
2023-05-21T19:06:03.712Z,2.60
2023-05-21T19:10:02.635Z,3.30
2023-05-21T19:13:35.109Z,2.40
2023-05-21T19:17:14.408Z,2.00
2023-05-21T19:20:56.406Z,2.40
2023-05-21T19:24:33.740Z,1.90
2023-05-21T19:28:06.152Z,1.80
2023-05-21T19:31:43.952Z,2.80
2023-05-21T19:35:24.509Z,2.00
2023-05-21T19:38:58.945Z,2.30
2023-05-21T19:42:36.180Z,1.70
2023-05-21T19:51:13.918Z,1.70
2023-05-21T19:54:55.211Z,1.90
2023-05-21T19:59:13.467Z,4.20
2023-05-21T20:02:32.130Z,2.40
2023-05-21T20:10:28.561Z,2.00
2023-05-21T20:14:14.092Z,2.30
2023-05-21T20:17:44.561Z,1.90
2023-05-21T20:22:12.351Z,2.90
2023-05-21T20:26:02.733Z,1.80
2023-05-21T20:35:07.723Z,1.80
2023-05-21T20:39:07.409Z,1.90
2023-05-21T20:52:04.815Z,2.10
2023-05-21T20:56:42.306Z,1.90
2023-05-21T21:04:24.988Z,2.00
2023-05-21T21:08:13.969Z,2.00
2023-05-21T21:11:50.566Z,1.70
2023-05-21T21:15:41.903Z,2.00
2023-05-21T21:23:39.984Z,1.80
2023-05-21T21:37:18.390Z,2.20
2023-05-21T21:40:58.074Z,2.10
2023-05-21T21:45:36.909Z,1.80
2023-05-21T22:08:26.522Z,2.30
2023-05-21T22:11:58.788Z,2.10
2023-05-21T22:15:31.567Z,2.00
2023-05-21T22:23:40.467Z,1.90
2023-05-21T22:27:24.626Z,1.80
2023-05-21T22:30:59.363Z,2.00
2023-05-21T22:35:37.029Z,1.70
2023-05-21T22:44:01.191Z,1.50
2023-05-21T22:47:16.723Z,1.90
2023-05-21T22:51:17.018Z,2.20
2023-05-21T22:54:52.163Z,1.80
2023-05-21T22:58:10.311Z,1.90
2023-05-21T23:02:17.846Z,1.60
2023-05-21T23:05:37.462Z,1.60
2023-05-21T23:09:00.984Z,1.60
2023-05-21T23:13:01.750Z,1.80
2023-05-21T23:16:33.820Z,4.80
2023-05-21T23:24:35.839Z,2.30
2023-05-21T23:28:05.246Z,1.90
2023-05-21T23:31:41.172Z,2.20
2023-05-21T23:35:33.526Z,1.90
2023-05-21T23:38:52.954Z,2.20
2023-05-21T23:42:45.620Z,2.80
2023-05-21T23:46:40.551Z,2.70
2023-05-21T23:50:56.638Z,3.00
2023-05-21T23:57:47.569Z,2.60
